Time;durP1;ratioP1;P1;durP2;ratioP2;P2;SDS_P1;SDS_P2;PMS_P1;PMS_P2;Temp;Humidity;BMP_temperature;BMP_pressure;BME280_temperature;BME280_humidity;BME280_pressure;Samples;Min_cycle;Max_cycle;Signal;HPM_P1;HPM_P2
2023/01/15 00:00:44;;;;;;;7.38;1.65;;;;;;;8.58;100.00;99817.38;5301703;28;20032;-75
2023/01/15 00:03:15;;;;;;;10.63;2.33;;;;;;;8.62;100.00;99826.56;5304468;28;20039;-75
2023/01/15 00:05:47;;;;;;;6.38;1.70;;;;;;;8.56;100.00;99808.84;5305117;28;20020;-75
2023/01/15 00:08:18;;;;;;;7.68;2.03;;;;;;;8.60;100.00;99829.34;5304287;28;20043;-79
2023/01/15 00:10:49;;;;;;;6.18;1.63;;;;;;;8.50;100.00;99815.47;5303757;28;20031;-75
2023/01/15 00:13:21;;;;;;;5.05;1.42;;;;;;;8.57;100.00;99826.19;5305320;28;20032;-78
2023/01/15 00:15:52;;;;;;;4.85;1.20;;;;;;;8.56;100.00;99819.28;5299867;28;20473;-76
2023/01/15 00:18:24;;;;;;;5.28;1.75;;;;;;;8.53;100.00;99818.63;5282578;28;20077;-75
2023/01/15 00:21:04;;;;;;;8.27;1.98;;;;;;;8.65;100.00;99823.69;5299627;28;20040;-78
2023/01/15 00:29:19;;;;;;;9.07;2.40;;;;;;;8.47;100.00;99803.53;5304538;28;20135;-77
2023/01/15 00:31:59;;;;;;;8.40;1.63;;;;;;;8.56;100.00;99812.31;5300932;28;20019;-75
2023/01/15 00:34:31;;;;;;;5.82;1.80;;;;;;;8.37;100.00;99805.34;5303332;28;20051;-76
2023/01/15 00:37:03;;;;;;;7.18;1.77;;;;;;;8.40;100.00;99801.63;5302455;28;20111;-75
2023/01/15 00:39:34;;;;;;;6.95;1.92;;;;;;;8.37;100.00;99809.69;5284988;28;20540;-78
2023/01/15 00:42:05;;;;;;;8.02;2.33;;;;;;;8.37;100.00;99794.91;5303555;28;20142;-78
2023/01/15 00:44:37;;;;;;;7.28;2.13;;;;;;;8.38;100.00;99825.25;5299262;28;20069;-75
2023/01/15 00:47:13;;;;;;;7.13;1.80;;;;;;;8.32;100.00;99807.50;5301481;28;20035;-75
2023/01/15 00:49:44;;;;;;;9.32;1.90;;;;;;;8.26;100.00;99818.53;5279165;28;20114;-76
2023/01/15 00:52:16;;;;;;;7.85;1.73;;;;;;;8.33;100.00;99824.00;5298563;28;20123;-75
2023/01/15 00:54:47;;;;;;;7.80;1.75;;;;;;;8.27;100.00;99834.03;5299632;28;20508;-76
2023/01/15 00:57:18;;;;;;;6.78;1.90;;;;;;;8.25;100.00;99838.56;5293765;28;20031;-76
2023/01/15 00:59:50;;;;;;;8.45;2.10;;;;;;;8.22;100.00;99830.19;5298545;28;20028;-76
2023/01/15 01:02:21;;;;;;;8.02;1.80;;;;;;;8.22;100.00;99822.34;5299245;28;20023;-76
2023/01/15 01:04:52;;;;;;;8.88;1.90;;;;;;;8.21;100.00;99833.75;5299411;28;20027;-74
2023/01/15 01:07:24;;;;;;;7.38;1.60;;;;;;;8.21;100.00;99841.59;5299176;28;20683;-75
2023/01/15 01:09:55;;;;;;;4.57;1.70;;;;;;;8.23;100.00;99839.69;5293316;28;20032;-76
2023/01/15 01:12:27;;;;;;;10.32;2.00;;;;;;;8.24;100.00;99841.31;5301381;28;20024;-76
2023/01/15 01:14:58;;;;;;;8.55;1.90;;;;;;;8.21;100.00;99831.97;5295781;28;20528;-75
2023/01/15 01:17:29;;;;;;;8.25;2.03;;;;;;;8.17;100.00;99845.44;5306924;28;20032;-76
2023/01/15 01:20:01;;;;;;;7.22;2.10;;;;;;;8.10;100.00;99834.72;5294954;28;20047;-76
2023/01/15 01:22:32;;;;;;;7.68;1.77;;;;;;;8.12;100.00;99842.44;5301443;28;20110;-76
2023/01/15 01:25:04;;;;;;;8.40;1.85;;;;;;;8.08;100.00;99849.72;5301807;28;20024;-78
2023/01/15 01:27:35;;;;;;;11.38;1.98;;;;;;;8.08;100.00;99835.84;5302344;28;20039;-76
2023/01/15 01:30:07;;;;;;;8.93;1.55;;;;;;;8.13;100.00;99838.84;5301503;28;20024;-78
2023/01/15 01:32:39;;;;;;;9.05;2.10;;;;;;;8.07;100.00;99837.66;5303811;28;20250;-74
2023/01/15 01:35:11;;;;;;;7.18;2.28;;;;;;;8.02;100.00;99829.38;5300877;28;20400;-78
2023/01/15 01:37:42;;;;;;;9.07;2.03;;;;;;;8.02;100.00;99840.66;5287428;28;20051;-75
2023/01/15 01:40:13;;;;;;;10.48;2.25;;;;;;;8.13;100.00;99841.47;5301784;28;20414;-76
2023/01/15 01:42:45;;;;;;;8.73;1.83;;;;;;;8.14;100.00;99849.16;5308279;28;20644;-75
2023/01/15 01:45:31;;;;;;;7.10;1.58;;;;;;;8.31;100.00;99850.25;5303972;28;20020;-75
2023/01/15 01:48:05;;;;;;;9.13;2.08;;;;;;;8.15;100.00;99845.59;5303857;28;20081;-74
2023/01/15 01:50:38;;;;;;;6.65;1.90;;;;;;;8.10;100.00;99844.34;5299282;28;20032;-78
2023/01/15 01:53:14;;;;;;;8.02;1.67;;;;;;;8.14;100.00;99832.66;5301741;28;20088;-75
2023/01/15 01:55:46;;;;;;;7.60;1.55;;;;;;;7.98;100.00;99835.84;5301633;28;20060;-74
2023/01/15 01:58:18;;;;;;;8.57;1.92;;;;;;;8.02;100.00;99838.03;5295266;28;20052;-75
2023/01/15 02:00:51;;;;;;;10.73;1.75;;;;;;;8.05;100.00;99845.59;5297821;28;20492;-76
2023/01/15 02:03:29;;;;;;;12.70;2.42;;;;;;;8.11;100.00;99840.81;5305868;28;20036;-74
2023/01/15 02:06:02;;;;;;;6.85;1.40;;;;;;;8.11;100.00;99835.59;5299900;28;20145;-75
2023/01/15 02:08:34;;;;;;;6.43;1.52;;;;;;;8.04;100.00;99841.34;5302148;28;20031;-75
2023/01/15 02:11:11;;;;;;;8.68;1.67;;;;;;;8.04;100.00;99858.78;5285245;28;20497;-76
2023/01/15 02:13:57;;;;;;;7.80;1.70;;;;;;;8.19;100.00;99848.75;5304122;28;20039;-75
2023/01/15 02:16:38;;;;;;;7.80;1.45;;;;;;;8.09;100.00;99853.97;5303206;28;20044;-74
2023/01/15 02:19:34;;;;;;;7.07;1.45;;;;;;;8.15;100.00;99857.81;5301880;28;20044;-74
2023/01/15 02:22:21;;;;;;;7.82;2.00;;;;;;;8.15;100.00;99848.19;5303516;28;20043;-76
2023/01/15 02:25:13;;;;;;;8.57;2.13;;;;;;;8.17;100.00;99827.19;5281464;28;20020;-76
2023/01/15 02:27:56;;;;;;;8.50;2.15;;;;;;;8.21;100.00;99841.59;5302038;28;20445;-75
2023/01/15 02:30:32;;;;;;;12.35;2.65;;;;;;;8.10;100.00;99824.28;5300965;28;20055;-77
2023/01/15 02:33:10;;;;;;;5.80;1.65;;;;;;;8.14;100.00;99830.06;5300963;28;20024;-76
2023/01/15 02:35:47;;;;;;;7.70;1.60;;;;;;;8.07;100.00;99821.16;5301599;28;20554;-77
2023/01/15 02:38:22;;;;;;;6.45;1.70;;;;;;;8.09;100.00;99827.88;5301254;28;20055;-75
2023/01/15 02:40:59;;;;;;;6.63;2.03;;;;;;;8.04;100.00;99820.47;5302364;28;20137;-76
2023/01/15 02:43:35;;;;;;;10.27;1.92;;;;;;;8.08;100.00;99836.66;5302345;28;20089;-76
2023/01/15 02:46:07;;;;;;;11.95;2.33;;;;;;;7.96;100.00;99829.97;5306321;28;20031;-76
2023/01/15 02:48:41;;;;;;;7.47;1.92;;;;;;;7.99;100.00;99807.03;5302831;28;20020;-76
2023/01/15 02:51:19;;;;;;;9.07;2.17;;;;;;;8.09;100.00;99816.63;5298340;28;20037;-76
2023/01/15 02:53:54;;;;;;;8.85;1.88;;;;;;;8.07;100.00;99823.75;5301241;28;20065;-76
2023/01/15 02:56:30;;;;;;;7.38;2.15;;;;;;;7.97;100.00;99815.94;5301852;28;20149;-75
2023/01/15 02:59:09;;;;;;;11.85;2.40;;;;;;;7.97;100.00;99806.34;5277372;28;20023;-76
2023/01/15 03:01:46;;;;;;;11.98;2.25;;;;;;;7.99;100.00;99803.56;5308003;28;20051;-76
2023/01/15 03:04:30;;;;;;;6.90;2.08;;;;;;;7.96;100.00;99796.06;5303052;28;20111;-76
2023/01/15 03:07:19;;;;;;;9.15;2.08;;;;;;;8.09;100.00;99820.06;5303429;28;20023;-75
2023/01/15 03:09:54;;;;;;;10.80;2.30;;;;;;;7.97;100.00;99818.56;5299750;28;20027;-74
2023/01/15 03:12:33;;;;;;;8.10;1.80;;;;;;;7.94;100.00;99814.44;5299502;28;20401;-74
2023/01/15 03:16:33;;;;;;;9.95;1.65;;;;;;;8.02;100.00;99825.00;5284185;28;20065;-76
2023/01/15 03:18:15;;;;;;;7.18;1.60;;;;;;;7.93;100.00;99817.19;5300666;28;20043;-76
2023/01/15 03:20:51;;;;;;;7.22;2.08;;;;;;;8.07;100.00;99831.56;5301994;28;20038;-76
2023/01/15 03:23:26;;;;;;;5.28;1.73;;;;;;;7.96;100.00;99816.91;5298738;28;20069;-76
2023/01/15 03:25:57;;;;;;;10.07;1.90;;;;;;;7.95;100.00;99817.88;5303109;28;20032;-76
2023/01/15 03:28:34;;;;;;;8.68;1.90;;;;;;;7.99;100.00;99807.03;5285735;28;20523;-76
2023/01/15 03:31:06;;;;;;;7.13;1.73;;;;;;;7.87;100.00;99813.34;5302682;28;20051;-76
2023/01/15 03:33:37;;;;;;;10.82;1.88;;;;;;;7.89;100.00;99808.81;5300661;28;20113;-76
2023/01/15 03:36:09;;;;;;;8.40;1.85;;;;;;;7.81;100.00;99803.47;5299307;28;20112;-75
2023/01/15 03:38:41;;;;;;;8.45;2.22;;;;;;;7.78;100.00;99794.13;5296253;28;20039;-80
2023/01/15 03:41:28;;;;;;;7.20;1.83;;;;;;;7.88;100.00;99814.16;5302271;28;20463;-76
2023/01/15 03:44:35;;;;;;;10.68;2.28;;;;;;;8.04;100.00;99828.31;5286797;28;20070;-74
2023/01/15 03:47:25;;;;;;;10.90;2.22;;;;;;;8.00;100.00;99824.31;5306253;28;20496;-73
2023/01/15 03:50:25;;;;;;;7.18;1.70;;;;;;;8.12;100.00;99824.19;5305548;28;20118;-77
2023/01/15 03:52:59;;;;;;;7.68;1.65;;;;;;;7.92;100.00;99818.16;5313890;28;20027;-74
2023/01/15 03:55:45;;;;;;;5.53;1.77;;;;;;;8.03;100.00;99824.06;5308210;28;20088;-76
2023/01/15 03:58:28;;;;;;;9.45;2.13;;;;;;;7.86;100.00;99816.09;5300533;28;20103;-75
2023/01/15 04:01:02;;;;;;;8.52;1.77;;;;;;;7.90;100.00;99820.88;5306754;28;20042;-76
2023/01/15 04:03:34;;;;;;;16.05;2.53;;;;;;;7.79;100.00;99821.84;5303200;28;20050;-75
2023/01/15 04:06:07;;;;;;;9.38;2.05;;;;;;;7.88;100.00;99820.22;5303071;28;20446;-76
2023/01/15 04:08:41;;;;;;;8.82;2.05;;;;;;;7.90;100.00;99814.84;5302976;28;20284;-76
2023/01/15 04:11:21;;;;;;;6.82;2.10;;;;;;;7.95;100.00;99813.47;5306459;28;20135;-75
2023/01/15 04:13:53;;;;;;;8.68;1.60;;;;;;;7.74;100.00;99807.59;5303834;28;20031;-76
2023/01/15 04:16:32;;;;;;;5.75;1.67;;;;;;;7.85;100.00;99812.66;5307178;28;20384;-75
2023/01/15 04:19:03;;;;;;;8.15;2.00;;;;;;;7.75;100.00;99809.22;5284146;28;20094;-76
2023/01/15 04:21:34;;;;;;;11.05;1.88;;;;;;;7.78;100.00;99822.00;5301277;28;20509;-76
2023/01/15 04:24:06;;;;;;;7.47;1.67;;;;;;;7.74;100.00;99820.63;5302782;28;20118;-76
2023/01/15 04:26:37;;;;;;;5.28;1.40;;;;;;;7.70;100.00;99827.06;5305183;28;20030;-75
2023/01/15 04:29:09;;;;;;;9.50;2.20;;;;;;;7.71;100.00;99810.47;5304367;28;20028;-76
2023/01/15 04:31:40;;;;;;;8.95;2.00;;;;;;;7.67;100.00;99806.50;5304259;28;20020;-75
2023/01/15 04:34:11;;;;;;;8.13;2.20;;;;;;;7.69;100.00;99813.22;5303554;28;20031;-76
2023/01/15 04:36:45;;;;;;;9.07;1.50;;;;;;;7.69;100.00;99814.97;5306024;28;20011;-75
2023/01/15 04:39:16;;;;;;;7.50;1.83;;;;;;;7.65;100.00;99821.44;5300098;28;20024;-75
2023/01/15 04:44:38;;;;;;;7.72;1.80;;;;;;;7.63;100.00;99825.97;5304199;28;20036;-74
2023/01/15 04:47:09;;;;;;;12.70;2.10;;;;;;;7.63;100.00;99825.97;5303351;28;20027;-76
2023/01/15 04:49:41;;;;;;;10.77;2.40;;;;;;;7.58;100.00;99818.56;5306260;28;20043;-74
2023/01/15 04:52:13;;;;;;;10.25;2.10;;;;;;;7.61;100.00;99823.47;5303967;28;20034;-75
2023/01/15 04:54:44;;;;;;;7.57;1.90;;;;;;;7.63;100.00;99836.41;5301214;28;20024;-73
2023/01/15 04:57:15;;;;;;;9.82;1.60;;;;;;;7.57;100.00;99832.53;5305297;28;20028;-76
2023/01/15 04:59:47;;;;;;;9.18;1.90;;;;;;;7.64;100.00;99840.66;5299767;28;20092;-74
2023/01/15 05:02:18;;;;;;;7.78;1.80;;;;;;;7.65;100.00;99834.47;5285559;28;20040;-76
2023/01/15 05:04:49;;;;;;;11.00;2.00;;;;;;;7.63;100.00;99821.56;5307246;28;20061;-75
2023/01/15 05:07:21;;;;;;;12.50;2.15;;;;;;;7.56;100.00;99823.91;5286444;28;20032;-76
2023/01/15 05:09:53;;;;;;;9.73;2.28;;;;;;;7.57;100.00;99838.56;5302507;28;20027;-75
2023/01/15 05:12:25;;;;;;;12.90;2.58;;;;;;;7.56;100.00;99826.50;5302994;28;20036;-75
2023/01/15 05:14:56;;;;;;;12.50;2.22;;;;;;;7.53;100.00;99833.75;5304318;28;20020;-76
2023/01/15 05:17:27;;;;;;;10.60;2.30;;;;;;;7.51;100.00;99833.91;5303932;28;20495;-75
2023/01/15 05:19:59;;;;;;;12.23;1.70;;;;;;;7.48;100.00;99828.97;5304129;28;20413;-76
2023/01/15 05:22:30;;;;;;;9.65;1.95;;;;;;;7.48;100.00;99823.75;5303147;28;20099;-75
2023/01/15 05:25:01;;;;;;;13.75;3.08;;;;;;;7.49;100.00;99821.97;5301262;28;20031;-75
2023/01/15 05:27:35;;;;;;;10.13;2.13;;;;;;;7.44;100.00;99805.94;5300755;28;20027;-75
2023/01/15 05:30:07;;;;;;;11.63;2.25;;;;;;;7.53;100.00;99818.94;5303633;28;20038;-75
2023/01/15 05:32:38;;;;;;;11.30;2.17;;;;;;;7.49;100.00;99814.97;5302959;28;20512;-75
2023/01/15 05:35:10;;;;;;;9.25;1.90;;;;;;;7.52;100.00;99809.50;5301235;28;20024;-75
2023/01/15 05:37:41;;;;;;;9.95;1.90;;;;;;;7.52;100.00;99806.88;5301697;28;20039;-75
2023/01/15 05:40:12;;;;;;;11.63;2.10;;;;;;;7.53;100.00;99816.34;5284194;28;20020;-76
2023/01/15 05:42:44;;;;;;;13.15;2.10;;;;;;;7.56;100.00;99805.66;5283891;28;20059;-75
2023/01/15 05:45:15;;;;;;;10.13;2.08;;;;;;;7.57;100.00;99817.72;5298013;28;20352;-76
2023/01/15 05:47:46;;;;;;;12.80;3.05;;;;;;;7.54;100.00;99806.75;5301799;28;20073;-75
2023/01/15 05:50:18;;;;;;;9.38;1.90;;;;;;;7.50;100.00;99806.22;5300995;28;20031;-76
2023/01/15 05:52:49;;;;;;;11.13;1.80;;;;;;;7.47;100.00;99798.66;5302456;28;20034;-75
2023/01/15 05:55:20;;;;;;;9.73;1.67;;;;;;;7.53;100.00;99812.91;5303515;28;20110;-76
2023/01/15 05:57:51;;;;;;;9.05;2.50;;;;;;;7.55;100.00;99808.41;5305004;28;20035;-76
2023/01/15 06:00:24;;;;;;;12.18;2.30;;;;;;;7.50;100.00;99798.41;5281984;28;20020;-75
2023/01/15 06:02:55;;;;;;;9.05;2.30;;;;;;;7.59;100.00;99806.34;5303978;28;20066;-75
2023/01/15 06:05:27;;;;;;;15.02;2.75;;;;;;;7.51;100.00;99802.63;5306683;28;20477;-74
2023/01/15 06:07:58;;;;;;;6.47;1.85;;;;;;;7.52;100.00;99800.84;5286377;28;20842;-76
2023/01/15 06:10:29;;;;;;;10.55;2.22;;;;;;;7.59;100.00;99807.16;5306511;28;20147;-76
2023/01/15 06:13:01;;;;;;;8.02;1.77;;;;;;;7.56;100.00;99815.25;5303981;28;20034;-76
2023/01/15 06:15:32;;;;;;;15.52;2.88;;;;;;;7.56;100.00;99820.47;5307983;28;20028;-77
2023/01/15 06:18:03;;;;;;;17.40;2.63;;;;;;;7.56;100.00;99821.28;5305356;28;20111;-76
2023/01/15 06:20:38;;;;;;;10.75;2.45;;;;;;;7.45;100.00;99821.41;5268617;28;1048586;-76
2023/01/15 06:23:10;;;;;;;7.43;2.13;;;;;;;7.45;100.00;99839.66;5286329;28;20126;-76
2023/01/15 06:25:41;;;;;;;11.63;2.28;;;;;;;7.52;100.00;99832.13;5285297;28;20034;-76
2023/01/15 06:28:12;;;;;;;8.88;2.28;;;;;;;7.42;100.00;99823.47;5307523;28;20046;-75
2023/01/15 06:30:44;;;;;;;9.45;2.40;;;;;;;7.41;100.00;99821.81;5308242;28;20594;-76
2023/01/15 06:33:15;;;;;;;9.77;1.98;;;;;;;7.36;100.00;99830.06;5305965;28;20039;-76
2023/01/15 06:35:46;;;;;;;7.05;2.10;;;;;;;7.36;100.00;99840.47;5309639;28;20088;-75
2023/01/15 06:38:17;;;;;;;10.63;2.10;;;;;;;7.37;100.00;99849.94;5307608;28;20031;-76
2023/01/15 06:40:49;;;;;;;9.10;2.58;;;;;;;7.30;100.00;99833.19;5304193;28;20032;-76
2023/01/15 06:49:00;;;;;;;6.78;1.92;;;;;;;7.25;100.00;99833.59;5302044;28;20048;-77
2023/01/15 06:51:31;;;;;;;9.43;1.77;;;;;;;7.26;100.00;99832.63;5298180;28;20653;-77
2023/01/15 06:54:02;;;;;;;10.10;2.20;;;;;;;7.23;100.00;99829.47;5289428;28;20027;-74
2023/01/15 06:56:34;;;;;;;10.15;2.38;;;;;;;7.20;100.00;99835.78;5307916;28;20031;-73
2023/01/15 06:59:05;;;;;;;6.63;1.85;;;;;;;7.12;100.00;99832.16;5305891;28;20034;-78
2023/01/15 07:01:36;;;;;;;9.88;1.92;;;;;;;7.09;100.00;99828.06;5305602;28;20568;-73
2023/01/15 07:04:08;;;;;;;8.13;1.80;;;;;;;7.10;100.00;99834.91;5306061;28;20031;-75
2023/01/15 07:06:39;;;;;;;9.85;2.05;;;;;;;7.07;100.00;99841.19;5306481;28;20088;-75
2023/01/15 07:09:11;;;;;;;10.45;1.98;;;;;;;7.10;100.00;99844.50;5307451;28;20027;-73
2023/01/15 07:11:51;;;;;;;8.05;1.83;;;;;;;7.10;100.00;99844.50;5306632;28;20031;-74
2023/01/15 07:14:25;;;;;;;6.63;1.50;;;;;;;7.14;100.00;99846.72;5303610;28;20374;-75
2023/01/15 07:16:58;;;;;;;9.48;2.55;;;;;;;7.07;100.00;99846.41;5288694;28;20032;-76
2023/01/15 07:19:29;;;;;;;10.17;1.70;;;;;;;7.07;100.00;99850.81;5304389;28;20075;-76
2023/01/15 07:22:00;;;;;;;6.07;1.70;;;;;;;7.11;100.00;99851.38;5303516;28;20333;-76
2023/01/15 07:24:32;;;;;;;8.25;1.77;;;;;;;6.85;100.00;99812.75;5286263;28;20059;-74
2023/01/15 07:27:04;;;;;;;9.40;2.08;;;;;;;7.15;100.00;99860.56;5287330;28;20372;-74
2023/01/15 07:29:35;;;;;;;5.40;1.30;;;;;;;7.13;100.00;99878.13;5306085;28;20056;-74
2023/01/15 07:32:07;;;;;;;7.60;1.50;;;;;;;7.12;100.00;99869.44;5306011;28;20074;-74
2023/01/15 07:34:38;;;;;;;6.28;2.00;;;;;;;7.24;100.00;99872.81;5288934;28;20030;-75
2023/01/15 07:37:09;;;;;;;8.43;1.80;;;;;;;7.22;100.00;99877.31;5301423;28;20027;-73
2023/01/15 07:39:41;;;;;;;5.95;1.70;;;;;;;7.23;100.00;99882.38;5303965;28;20027;-75
2023/01/15 07:50:43;;;;;;;7.47;1.73;;;;;;;7.28;100.00;99880.22;5304797;28;20036;-75
2023/01/15 07:53:14;;;;;;;8.57;2.28;;;;;;;7.26;100.00;99894.31;5305384;28;20023;-75
2023/01/15 07:55:45;;;;;;;9.18;1.70;;;;;;;7.26;100.00;99894.31;5298841;28;20538;-75
2023/01/15 07:58:16;;;;;;;6.43;1.50;;;;;;;7.24;100.00;99885.84;5301482;28;20028;-76
2023/01/15 08:00:48;;;;;;;8.30;1.90;;;;;;;7.27;100.00;99899.41;5301601;28;20034;-75
2023/01/15 08:03:19;;;;;;;7.78;1.75;;;;;;;7.22;100.00;99913.78;5300688;28;20067;-76
2023/01/15 08:05:50;;;;;;;4.80;1.58;;;;;;;7.12;100.00;99897.28;5299206;28;20681;-76
2023/01/15 08:08:22;;;;;;;6.95;1.60;;;;;;;7.10;100.00;99896.59;5300912;28;20042;-75
2023/01/15 08:16:36;;;;;;;7.32;1.90;;;;;;;7.06;100.00;99899.47;5304296;28;20032;-75
2023/01/15 08:19:07;;;;;;;8.57;1.45;;;;;;;6.97;100.00;99899.41;5300923;28;20043;-76
2023/01/15 08:21:39;;;;;;;8.35;2.10;;;;;;;6.92;100.00;99914.59;5302677;28;20039;-73
2023/01/15 08:24:10;;;;;;;11.88;1.60;;;;;;;6.83;100.00;99913.63;5277643;28;20036;-79
2023/01/15 08:26:41;;;;;;;6.57;1.73;;;;;;;6.77;100.00;99911.50;5298580;28;20114;-76
2023/01/15 08:29:13;;;;;;;6.60;1.70;;;;;;;6.78;100.00;99907.94;5305149;28;20031;-78
2023/01/15 08:31:44;;;;;;;7.95;1.80;;;;;;;6.75;100.00;99903.03;5302268;28;20622;-77
2023/01/15 08:34:15;;;;;;;8.40;1.73;;;;;;;6.73;100.00;99902.31;5302297;28;20028;-76
2023/01/15 08:36:48;;;;;;;8.60;1.75;;;;;;;6.77;100.00;99903.69;5306839;28;20471;-78
2023/01/15 08:39:19;;;;;;;7.50;1.92;;;;;;;6.72;100.00;99909.28;5307435;28;20138;-78
2023/01/15 08:41:51;;;;;;;6.88;1.48;;;;;;;6.73;100.00;99910.13;5303380;28;20116;-76
2023/01/15 08:44:23;;;;;;;7.78;2.15;;;;;;;6.68;100.00;99900.09;5304169;28;20516;-80
2023/01/15 08:46:54;;;;;;;8.82;1.60;;;;;;;6.71;100.00;99889.44;5301250;28;20024;-75
2023/01/15 08:49:26;;;;;;;7.25;1.60;;;;;;;6.70;100.00;99892.16;5302187;28;20088;-79
2023/01/15 08:51:57;;;;;;;6.28;1.40;;;;;;;6.80;100.00;99900.84;5301605;28;20110;-77
2023/01/15 08:54:28;;;;;;;8.85;1.92;;;;;;;6.76;100.00;99899.47;5302679;28;20043;-78
2023/01/15 08:57:00;;;;;;;9.48;2.10;;;;;;;6.72;100.00;99885.06;5303353;28;20062;-76
2023/01/15 08:59:31;;;;;;;7.82;1.60;;;;;;;6.77;100.00;99901.09;5280756;28;20035;-78
2023/01/15 09:02:02;;;;;;;7.68;1.48;;;;;;;6.72;100.00;99885.06;5302623;28;20496;-76
2023/01/15 09:04:34;;;;;;;4.97;1.20;;;;;;;6.79;100.00;99888.78;5297927;28;20021;-76
2023/01/15 09:07:05;;;;;;;6.90;1.77;;;;;;;6.73;100.00;99886.69;5300171;28;20095;-80
2023/01/15 09:09:36;;;;;;;6.95;1.60;;;;;;;6.73;100.00;99886.69;5302287;28;20020;-79
2023/01/15 09:12:08;;;;;;;9.63;1.67;;;;;;;6.87;100.00;99885.53;5299241;28;20031;-75
2023/01/15 09:14:39;;;;;;;8.35;1.85;;;;;;;6.89;100.00;99881.00;5301507;28;20025;-82
2023/01/15 09:17:10;;;;;;;7.70;1.90;;;;;;;6.91;100.00;99863.50;5301298;28;20483;-77
2023/01/15 09:19:42;;;;;;;6.65;1.25;;;;;;;6.91;100.00;99879.94;5300591;28;20250;-75
2023/01/15 09:22:13;;;;;;;11.43;2.03;;;;;;;6.96;100.00;99885.56;5300503;28;20045;-79
2023/01/15 09:24:45;;;;;;;8.02;1.73;;;;;;;6.98;100.00;99875.84;5301541;28;20047;-78
2023/01/15 09:27:16;;;;;;;10.95;1.60;;;;;;;7.00;100.00;99881.75;5302335;28;20020;-81
2023/01/15 09:29:48;;;;;;;7.13;1.98;;;;;;;7.17;100.00;99888.13;5301345;28;20024;-77
2023/01/15 09:32:19;;;;;;;7.65;1.88;;;;;;;7.16;100.00;99878.69;5304266;28;20036;-76
2023/01/15 09:34:50;;;;;;;11.55;2.78;;;;;;;7.25;100.00;99880.47;5302343;28;20064;-80
2023/01/15 09:37:21;;;;;;;4.60;1.60;;;;;;;7.16;100.00;99873.47;5287205;28;20028;-80
2023/01/15 09:39:53;;;;;;;9.63;2.22;;;;;;;7.23;100.00;99884.16;5307505;28;20381;-76
2023/01/15 09:42:49;;;;;;;7.43;1.67;;;;;;;7.33;100.00;99890.25;5305322;28;20115;-81
2023/01/15 09:45:36;;;;;;;7.68;1.45;;;;;;;7.42;100.00;99889.44;5308491;28;20031;-75
2023/01/15 09:48:18;;;;;;;9.93;2.38;;;;;;;7.47;100.00;99899.47;5310555;28;20354;-76
2023/01/15 09:51:10;;;;;;;10.27;2.40;;;;;;;7.48;100.00;99893.28;5308246;28;20016;-81
2023/01/15 09:53:45;;;;;;;9.88;2.33;;;;;;;7.41;100.00;99900.00;5303339;28;20027;-75
2023/01/15 09:56:23;;;;;;;7.88;2.05;;;;;;;7.46;100.00;99903.00;5304843;28;20036;-79
2023/01/15 09:58:56;;;;;;;11.13;2.10;;;;;;;7.52;100.00;99897.28;5301298;28;20481;-79
2023/01/15 10:01:30;;;;;;;9.35;1.80;;;;;;;7.57;100.00;99916.75;5303738;28;20027;-77
2023/01/15 10:04:05;;;;;;;10.82;2.08;;;;;;;7.55;100.00;99908.28;5308140;28;20023;-76
2023/01/15 10:06:53;;;;;;;8.80;1.88;;;;;;;7.64;100.00;99905.81;5304235;28;20153;-76
2023/01/15 10:09:34;;;;;;;9.90;1.85;;;;;;;7.62;100.00;99902.53;5307388;28;20039;-75
2023/01/15 10:12:38;;;;;;;6.88;1.63;;;;;;;7.80;100.00;99906.09;5307577;28;20507;-78
2023/01/15 10:15:12;;;;;;;7.20;2.03;;;;;;;7.66;100.00;99919.56;5304125;28;20028;-77
2023/01/15 10:17:54;;;;;;;6.90;1.63;;;;;;;7.55;100.00;99920.47;5306715;28;20106;-78
2023/01/15 10:20:48;;;;;;;6.25;1.42;;;;;;;7.74;100.00;99917.09;5307400;28;20047;-75
2023/01/15 10:23:44;;;;;;;8.77;1.92;;;;;;;7.96;100.00;99926.47;5285110;28;20040;-75
2023/01/15 10:26:27;;;;;;;7.95;2.00;;;;;;;7.95;100.00;99927.41;5305639;28;20032;-77
2023/01/15 10:29:02;;;;;;;12.68;2.08;;;;;;;7.74;100.00;99917.09;5303027;28;20083;-77
2023/01/15 10:32:09;;;;;;;9.57;2.17;;;;;;;8.00;100.00;99933.88;5303940;28;20085;-77
2023/01/15 10:34:53;;;;;;;7.28;1.70;;;;;;;7.81;100.00;99923.41;5304844;28;20130;-77
2023/01/15 10:37:30;;;;;;;;;;;;;;;8.43;100.00;99927.44;5296726;28;20497;-77
2023/01/15 10:40:16;;;;;;;8.70;2.13;;;;;;;8.10;100.00;99931.25;5296876;28;19916;-77
2023/01/15 10:42:59;;;;;;;7.32;1.83;;;;;;;8.20;100.00;99926.06;5299775;28;20027;-78
2023/01/15 10:45:51;;;;;;;8.10;1.85;;;;;;;8.37;100.00;99917.56;5302777;28;20500;-77
2023/01/15 10:48:22;;;;;;;9.13;1.73;;;;;;;8.27;100.00;99921.94;5302283;28;20096;-78
2023/01/15 10:50:55;;;;;;;7.45;1.73;;;;;;;8.23;100.00;99910.13;5283501;28;20028;-75
2023/01/15 10:54:06;;;;;;;8.50;1.75;;;;;;;8.43;100.00;99914.41;5304436;28;20039;-78
2023/01/15 10:56:55;;;;;;;7.43;1.58;;;;;;;8.45;100.00;99896.81;5302297;28;20096;-79
2023/01/15 10:59:46;;;;;;;7.10;1.60;;;;;;;8.42;100.00;99893.66;5302375;28;20028;-76
2023/01/15 11:02:32;;;;;;;6.07;1.73;;;;;;;8.40;100.00;99901.63;5307322;28;20027;-77
2023/01/15 11:05:05;;;;;;;6.97;1.45;;;;;;;8.38;100.00;99905.34;5302090;28;20030;-77
2023/01/15 11:07:45;;;;;;;8.52;1.77;;;;;;;8.64;100.00;99921.25;5298327;28;20028;-77
2023/01/15 11:10:20;;;;;;;4.45;1.63;;;;;;;8.40;100.00;99922.50;5298889;28;20035;-78
2023/01/15 11:21:32;;;;;;;9.77;1.60;;;;;;;8.43;100.00;99916.19;5296998;28;20135;-76
2023/01/15 11:24:03;;;;;;;3.50;1.00;;;;;;;8.40;100.00;99916.44;5295023;28;20743;-77
2023/01/15 11:26:36;;;;;;;6.35;1.15;;;;;;;8.54;100.00;99921.25;5304132;28;20032;-78
2023/01/15 11:29:15;;;;;;;4.63;1.17;;;;;;;8.56;100.00;99918.50;5303739;28;20050;-77
2023/01/15 11:31:46;;;;;;;4.38;1.02;;;;;;;8.52;100.00;99931.84;5299650;28;20077;-73
2023/01/15 11:34:20;;;;;;;4.10;1.15;;;;;;;8.42;100.00;99923.19;5296395;28;20031;-75
2023/01/15 11:37:03;;;;;;;4.40;0.98;;;;;;;8.51;100.00;99922.34;5296451;28;20033;-76
2023/01/15 11:39:35;;;;;;;4.82;1.40;;;;;;;8.35;100.00;99923.84;5297257;28;20039;-75
2023/01/15 11:51:14;;;;;;;6.10;1.58;;;;;;;8.68;100.00;99930.44;5300924;28;20040;-74
2023/01/15 11:53:52;;;;;;;6.00;1.75;;;;;;;8.68;100.00;99935.66;5304667;28;20028;-73
2023/01/15 11:56:26;;;;;;;6.93;1.30;;;;;;;8.56;100.00;99921.09;5307577;28;20116;-75
2023/01/15 11:59:02;;;;;;;5.90;1.30;;;;;;;8.67;100.00;99936.63;5303496;28;20027;-74
2023/01/15 12:01:44;;;;;;;4.78;1.48;;;;;;;8.66;100.00;99916.69;5305912;28;20028;-74
2023/01/15 12:04:37;;;;;;;5.75;1.30;;;;;;;8.76;100.00;99928.78;5296277;28;20016;-75
2023/01/15 12:07:12;;;;;;;5.28;1.40;;;;;;;8.74;100.00;99929.88;5300347;28;20055;-76
2023/01/15 12:10:04;;;;;;;5.00;1.20;;;;;;;8.60;100.00;99935.53;5301323;28;20032;-74
2023/01/15 12:13:07;;;;;;;3.38;1.50;;;;;;;8.64;100.00;99919.47;5298778;28;20064;-75
2023/01/15 12:16:00;;;;;;;5.00;1.17;;;;;;;8.71;100.00;99928.38;5303688;28;20157;-74
2023/01/15 12:18:56;;;;;;;6.30;1.35;;;;;;;8.76;100.00;99909.69;5300844;28;20032;-77
2023/01/15 12:21:52;;;;;;;5.30;1.08;;;;;;;8.73;100.00;99918.59;5284886;28;20082;-76
2023/01/15 12:25:14;;;;;;;5.47;1.30;;;;;;;8.73;100.00;99925.63;5286342;28;20019;-77
2023/01/15 12:28:09;;;;;;;4.93;1.23;;;;;;;8.59;100.00;99905.97;5268234;28;20044;-76
2023/01/15 12:31:09;;;;;;;5.18;1.08;;;;;;;8.56;100.00;99927.16;5291351;28;20024;-77
2023/01/15 12:33:43;;;;;;;7.38;1.45;;;;;;;8.40;100.00;99901.63;5302645;28;20035;-77
2023/01/15 12:36:24;;;;;;;5.32;1.10;;;;;;;8.42;100.00;99897.09;5299161;28;20469;-77
2023/01/15 12:39:00;;;;;;;6.68;1.60;;;;;;;8.44;100.00;99908.19;5296147;28;20034;-76
2023/01/15 12:45:03;;;;;;;6.45;1.20;;;;;;;8.84;100.00;99895.91;5297699;28;20043;-76
2023/01/15 12:48:17;;;;;;;4.78;1.02;;;;;;;8.97;100.00;99918.13;5290399;28;20145;-75
2023/01/15 12:50:51;;;;;;;3.35;0.70;;;;;;;8.66;100.00;99911.47;5225803;28;20064;-76
2023/01/15 12:53:41;;;;;;;5.20;1.30;;;;;;;8.84;100.00;99919.41;5299401;28;20081;-74
2023/01/15 12:56:20;;;;;;;3.90;1.20;;;;;;;8.66;100.00;99919.31;5300501;28;20036;-76
2023/01/15 12:59:28;;;;;;;5.55;1.30;;;;;;;8.81;100.00;99915.28;5299966;28;20320;-76
2023/01/15 13:02:08;;;;;;;6.30;1.30;;;;;;;8.69;100.00;99898.16;5295091;28;20035;-76